sensor_id;sensor_type;location;lat;lon;timestamp;pressure;altitude;pressure_sealevel;temperature
69186;BMP280;56298;49.246;9.410;2022-07-01T00:00:55;99505.66;;;16.40
69186;BMP280;56298;49.246;9.410;2022-07-01T00:03:21;99501.69;;;16.27
69186;BMP280;56298;49.246;9.410;2022-07-01T00:05:46;99496.53;;;16.29
69186;BMP280;56298;49.246;9.410;2022-07-01T00:08:11;99495.75;;;16.18
69186;BMP280;56298;49.246;9.410;2022-07-01T00:10:36;99491.75;;;16.15
69186;BMP280;56298;49.246;9.410;2022-07-01T00:13:03;99487.41;;;16.25
69186;BMP280;56298;49.246;9.410;2022-07-01T00:15:28;99479.94;;;16.33
69186;BMP280;56298;49.246;9.410;2022-07-01T00:17:54;99475.16;;;16.26
69186;BMP280;56298;49.246;9.410;2022-07-01T00:20:19;99472.41;;;16.26
69186;BMP280;56298;49.246;9.410;2022-07-01T00:22:45;99477.94;;;16.15
69186;BMP280;56298;49.246;9.410;2022-07-01T00:25:11;99471.56;;;16.00
69186;BMP280;56298;49.246;9.410;2022-07-01T00:27:37;99478.66;;;15.94
69186;BMP280;56298;49.246;9.410;2022-07-01T00:30:04;99469.94;;;15.92
69186;BMP280;56298;49.246;9.410;2022-07-01T00:32:29;99469.56;;;15.97
69186;BMP280;56298;49.246;9.410;2022-07-01T00:34:54;99460.88;;;15.99
69186;BMP280;56298;49.246;9.410;2022-07-01T00:37:19;99464.41;;;15.88
69186;BMP280;56298;49.246;9.410;2022-07-01T00:39:45;99454.91;;;15.82
69186;BMP280;56298;49.246;9.410;2022-07-01T00:42:10;99449.72;;;15.70
69186;BMP280;56298;49.246;9.410;2022-07-01T00:44:36;99449.72;;;15.70
69186;BMP280;56298;49.246;9.410;2022-07-01T00:47:09;99443.41;;;15.65
69186;BMP280;56298;49.246;9.410;2022-07-01T00:49:35;99455.28;;;15.73
69186;BMP280;56298;49.246;9.410;2022-07-01T00:52:01;99454.84;;;15.67
69186;BMP280;56298;49.246;9.410;2022-07-01T00:54:26;99460.00;;;15.62
69186;BMP280;56298;49.246;9.410;2022-07-01T00:56:53;99465.44;;;15.47
69186;BMP280;56298;49.246;9.410;2022-07-01T00:59:18;99463.41;;;15.41
69186;BMP280;56298;49.246;9.410;2022-07-01T01:01:44;99455.50;;;15.39
69186;BMP280;56298;49.246;9.410;2022-07-01T01:04:09;99459.41;;;15.34
69186;BMP280;56298;49.246;9.410;2022-07-01T01:06:34;99449.91;;;15.24
69186;BMP280;56298;49.246;9.410;2022-07-01T01:09:00;99458.13;;;15.14
69186;BMP280;56298;49.246;9.410;2022-07-01T01:11:26;99461.72;;;15.21
69186;BMP280;56298;49.246;9.410;2022-07-01T01:13:51;99477.16;;;15.30
69186;BMP280;56298;49.246;9.410;2022-07-01T01:16:18;99483.47;;;15.27
69186;BMP280;56298;49.246;9.410;2022-07-01T01:18:43;99485.03;;;15.20
69186;BMP280;56298;49.246;9.410;2022-07-01T01:21:09;99488.16;;;15.22
69186;BMP280;56298;49.246;9.410;2022-07-01T01:23:34;99477.91;;;15.19
69186;BMP280;56298;49.246;9.410;2022-07-01T01:25:59;99468.88;;;15.30
69186;BMP280;56298;49.246;9.410;2022-07-01T01:28:25;99472.03;;;15.28
69186;BMP280;56298;49.246;9.410;2022-07-01T01:30:51;99453.88;;;15.31
69186;BMP280;56298;49.246;9.410;2022-07-01T01:33:17;99455.09;;;15.37
69186;BMP280;56298;49.246;9.410;2022-07-01T01:35:42;99462.25;;;15.45
69186;BMP280;56298;49.246;9.410;2022-07-01T01:38:07;99462.63;;;15.40
69186;BMP280;56298;49.246;9.410;2022-07-01T01:40:33;99474.41;;;15.33
69186;BMP280;56298;49.246;9.410;2022-07-01T01:42:58;99461.81;;;15.36
69186;BMP280;56298;49.246;9.410;2022-07-01T01:45:23;99460.25;;;15.42
69186;BMP280;56298;49.246;9.410;2022-07-01T01:47:49;99461.03;;;15.39
69186;BMP280;56298;49.246;9.410;2022-07-01T01:50:14;99462.66;;;15.47
69186;BMP280;56298;49.246;9.410;2022-07-01T01:52:39;99470.16;;;15.47
69186;BMP280;56298;49.246;9.410;2022-07-01T01:55:08;99460.31;;;15.53
69186;BMP280;56298;49.246;9.410;2022-07-01T01:57:34;99449.69;;;15.62
69186;BMP280;56298;49.246;9.410;2022-07-01T01:59:59;99446.88;;;15.51
69186;BMP280;56298;49.246;9.410;2022-07-01T02:02:24;99451.59;;;15.44
69186;BMP280;56298;49.246;9.410;2022-07-01T02:04:49;99443.28;;;15.36
69186;BMP280;56298;49.246;9.410;2022-07-01T02:07:15;99434.94;;;15.29
69186;BMP280;56298;49.246;9.410;2022-07-01T02:09:40;99425.88;;;15.39
69186;BMP280;56298;49.246;9.410;2022-07-01T02:12:06;99427.88;;;15.39
69186;BMP280;56298;49.246;9.410;2022-07-01T02:14:31;99416.47;;;15.44
69186;BMP280;56298;49.246;9.410;2022-07-01T02:16:56;99412.88;;;15.40
69186;BMP280;56298;49.246;9.410;2022-07-01T02:19:21;99408.09;;;15.30
69186;BMP280;56298;49.246;9.410;2022-07-01T02:21:47;99404.97;;;15.31
69186;BMP280;56298;49.246;9.410;2022-07-01T02:24:12;99405.75;;;15.35
69186;BMP280;56298;49.246;9.410;2022-07-01T02:26:37;99405.34;;;15.33
69186;BMP280;56298;49.246;9.410;2022-07-01T02:29:02;99404.22;;;15.42
69186;BMP280;56298;49.246;9.410;2022-07-01T02:31:28;99408.97;;;15.48
69186;BMP280;56298;49.246;9.410;2022-07-01T02:33:53;99404.25;;;15.52
69186;BMP280;56298;49.246;9.410;2022-07-01T02:36:18;99408.16;;;15.51
69186;BMP280;56298;49.246;9.410;2022-07-01T02:38:44;99401.88;;;15.47
69186;BMP280;56298;49.246;9.410;2022-07-01T02:41:09;99397.13;;;15.51
69186;BMP280;56298;49.246;9.410;2022-07-01T02:43:35;99402.25;;;15.46
69186;BMP280;56298;49.246;9.410;2022-07-01T02:46:00;99397.88;;;15.37
69186;BMP280;56298;49.246;9.410;2022-07-01T02:48:26;99391.91;;;15.24
69186;BMP280;56298;49.246;9.410;2022-07-01T02:50:51;99391.47;;;15.22
69186;BMP280;56298;49.246;9.410;2022-07-01T02:53:16;99398.19;;;15.21
69186;BMP280;56298;49.246;9.410;2022-07-01T02:55:41;99410.88;;;15.30
69186;BMP280;56298;49.246;9.410;2022-07-01T02:58:06;99399.44;;;15.35
69186;BMP280;56298;49.246;9.410;2022-07-01T03:00:32;99395.91;;;15.42
69186;BMP280;56298;49.246;9.410;2022-07-01T03:02:57;99409.31;;;15.39
69186;BMP280;56298;49.246;9.410;2022-07-01T03:05:22;99415.63;;;15.36
69186;BMP280;56298;49.246;9.410;2022-07-01T03:07:48;99423.94;;;15.40
69186;BMP280;56298;49.246;9.410;2022-07-01T03:10:13;99423.50;;;15.34
69186;BMP280;56298;49.246;9.410;2022-07-01T03:12:38;99430.63;;;15.35
69186;BMP280;56298;49.246;9.410;2022-07-01T03:15:09;99430.19;;;15.33
69186;BMP280;56298;49.246;9.410;2022-07-01T03:17:36;99440.91;;;15.38
69186;BMP280;56298;49.246;9.410;2022-07-01T03:20:03;99443.22;;;15.33
69186;BMP280;56298;49.246;9.410;2022-07-01T03:22:30;99445.22;;;15.36
69186;BMP280;56298;49.246;9.410;2022-07-01T03:24:56;99451.88;;;15.28
69186;BMP280;56298;49.246;9.410;2022-07-01T03:27:22;99455.44;;;15.28
69186;BMP280;56298;49.246;9.410;2022-07-01T03:29:48;99462.56;;;15.33
69186;BMP280;56298;49.246;9.410;2022-07-01T03:32:14;99471.31;;;15.38
69186;BMP280;56298;49.246;9.410;2022-07-01T03:34:42;99469.66;;;15.27
69186;BMP280;56298;49.246;9.410;2022-07-01T03:37:08;99470.09;;;15.39
69186;BMP280;56298;49.246;9.410;2022-07-01T03:39:35;99476.84;;;15.38
69186;BMP280;56298;49.246;9.410;2022-07-01T03:42:01;99483.47;;;15.30
69186;BMP280;56298;49.246;9.410;2022-07-01T03:44:27;99495.28;;;15.23
69186;BMP280;56298;49.246;9.410;2022-07-01T03:46:53;99482.69;;;15.33
69186;BMP280;56298;49.246;9.410;2022-07-01T03:49:18;99491.75;;;15.27
69186;BMP280;56298;49.246;9.410;2022-07-01T03:51:44;99497.84;;;15.54
69186;BMP280;56298;49.246;9.410;2022-07-01T03:54:09;99501.03;;;15.56
69186;BMP280;56298;49.246;9.410;2022-07-01T03:56:53;99506.97;;;15.62
69186;BMP280;56298;49.246;9.410;2022-07-01T03:59:18;99514.53;;;15.72
69186;BMP280;56298;49.246;9.410;2022-07-01T04:01:43;99519.63;;;15.70
69186;BMP280;56298;49.246;9.410;2022-07-01T04:04:09;99511.00;;;15.82
69186;BMP280;56298;49.246;9.410;2022-07-01T04:06:35;99529.97;;;15.80
69186;BMP280;56298;49.246;9.410;2022-07-01T04:09:01;99543.03;;;15.87
69186;BMP280;56298;49.246;9.410;2022-07-01T04:11:26;99553.25;;;15.79
69186;BMP280;56298;49.246;9.410;2022-07-01T04:13:52;99561.97;;;15.85
69186;BMP280;56298;49.246;9.410;2022-07-01T04:16:18;99573.03;;;15.85
69186;BMP280;56298;49.246;9.410;2022-07-01T04:18:44;99571.91;;;15.97
69186;BMP280;56298;49.246;9.410;2022-07-01T04:21:09;99588.50;;;15.93
69186;BMP280;56298;49.246;9.410;2022-07-01T04:23:53;99590.41;;;15.78
69186;BMP280;56298;49.246;9.410;2022-07-01T04:26:18;99587.25;;;15.83
69186;BMP280;56298;49.246;9.410;2022-07-01T04:28:43;99590.84;;;15.88
69186;BMP280;56298;49.246;9.410;2022-07-01T04:31:09;99596.78;;;15.93
69186;BMP280;56298;49.246;9.410;2022-07-01T04:33:34;99593.59;;;15.91
69186;BMP280;56298;49.246;9.410;2022-07-01T04:35:59;99599.56;;;15.93
69186;BMP280;56298;49.246;9.410;2022-07-01T04:38:24;99601.88;;;15.80
69186;BMP280;56298;49.246;9.410;2022-07-01T04:40:50;99607.78;;;15.82
69186;BMP280;56298;49.246;9.410;2022-07-01T04:43:33;99615.28;;;15.82
69186;BMP280;56298;49.246;9.410;2022-07-01T04:45:58;99624.81;;;15.88
69186;BMP280;56298;49.246;9.410;2022-07-01T04:48:24;99632.81;;;16.04
69186;BMP280;56298;49.246;9.410;2022-07-01T04:50:49;99626.59;;;16.25
69186;BMP280;56298;49.246;9.410;2022-07-01T04:53:14;99642.06;;;16.37
69186;BMP280;56298;49.246;9.410;2022-07-01T04:55:39;99630.63;;;16.39
69186;BMP280;56298;49.246;9.410;2022-07-01T04:58:05;99639.31;;;16.45
69186;BMP280;56298;49.246;9.410;2022-07-01T05:00:30;99634.53;;;16.38
69186;BMP280;56298;49.246;9.410;2022-07-01T05:02:56;99635.72;;;16.37
69186;BMP280;56298;49.246;9.410;2022-07-01T05:05:21;99629.44;;;16.44
69186;BMP280;56298;49.246;9.410;2022-07-01T05:07:46;99631.38;;;16.43
69186;BMP280;56298;49.246;9.410;2022-07-01T05:10:12;99633.41;;;16.50
69186;BMP280;56298;49.246;9.410;2022-07-01T05:12:38;99629.47;;;16.51
69186;BMP280;56298;49.246;9.410;2022-07-01T05:15:03;99628.66;;;16.54
69186;BMP280;56298;49.246;9.410;2022-07-01T05:17:28;99631.75;;;16.38
69186;BMP280;56298;49.246;9.410;2022-07-01T05:20:14;99624.31;;;16.46
69186;BMP280;56298;49.246;9.410;2022-07-01T05:22:58;99627.47;;;16.51
69186;BMP280;56298;49.246;9.410;2022-07-01T05:25:23;99627.03;;;16.38
69186;BMP280;56298;49.246;9.410;2022-07-01T05:27:48;99629.81;;;16.38
69186;BMP280;56298;49.246;9.410;2022-07-01T05:30:14;99632.56;;;16.38
69186;BMP280;56298;49.246;9.410;2022-07-01T05:32:39;99636.94;;;16.47
69186;BMP280;56298;49.246;9.410;2022-07-01T05:35:05;99641.19;;;16.19
69186;BMP280;56298;49.246;9.410;2022-07-01T05:37:30;99645.84;;;16.07
69186;BMP280;56298;49.246;9.410;2022-07-01T05:39:55;99645.84;;;16.04
69186;BMP280;56298;49.246;9.410;2022-07-01T05:42:21;99649.34;;;15.90
69186;BMP280;56298;49.246;9.410;2022-07-01T05:44:46;99647.03;;;15.99
69186;BMP280;56298;49.246;9.410;2022-07-01T05:47:11;99645.41;;;15.98
69186;BMP280;56298;49.246;9.410;2022-07-01T05:49:36;99642.63;;;15.94
69186;BMP280;56298;49.246;9.410;2022-07-01T05:52:02;99659.16;;;15.83
69186;BMP280;56298;49.246;9.410;2022-07-01T05:54:27;99666.59;;;15.76
69186;BMP280;56298;49.246;9.410;2022-07-01T05:56:52;99665.06;;;15.82
69186;BMP280;56298;49.246;9.410;2022-07-01T05:59:17;99660.69;;;15.77
69186;BMP280;56298;49.246;9.410;2022-07-01T06:01:43;99634.91;;;15.62
69186;BMP280;56298;49.246;9.410;2022-07-01T06:04:09;99636.91;;;15.65
69186;BMP280;56298;49.246;9.410;2022-07-01T06:06:34;99647.97;;;15.65
69186;BMP280;56298;49.246;9.410;2022-07-01T06:08:59;99650.75;;;15.69
69186;BMP280;56298;49.246;9.410;2022-07-01T06:11:25;99638.50;;;15.70
69186;BMP280;56298;49.246;9.410;2022-07-01T06:13:50;99650.03;;;15.79
69186;BMP280;56298;49.246;9.410;2022-07-01T06:16:15;99647.69;;;15.81
69186;BMP280;56298;49.246;9.410;2022-07-01T06:18:40;99635.47;;;15.86
69186;BMP280;56298;49.246;9.410;2022-07-01T06:21:06;99641.84;;;15.94
69186;BMP280;56298;49.246;9.410;2022-07-01T06:23:31;99641.41;;;15.88
69186;BMP280;56298;49.246;9.410;2022-07-01T06:25:56;99649.72;;;15.88
69186;BMP280;56298;49.246;9.410;2022-07-01T06:28:22;99657.56;;;15.82
69186;BMP280;56298;49.246;9.410;2022-07-01T06:30:47;99655.66;;;15.90
69186;BMP280;56298;49.246;9.410;2022-07-01T06:33:12;99659.97;;;15.84
69186;BMP280;56298;49.246;9.410;2022-07-01T06:35:38;99657.13;;;15.73
69186;BMP280;56298;49.246;9.410;2022-07-01T06:38:03;99656.75;;;15.82
69186;BMP280;56298;49.246;9.410;2022-07-01T06:40:28;99665.44;;;15.77
69186;BMP280;56298;49.246;9.410;2022-07-01T06:42:54;99676.94;;;15.86
69186;BMP280;56298;49.246;9.410;2022-07-01T06:45:20;99678.88;;;15.78
69186;BMP280;56298;49.246;9.410;2022-07-01T06:47:45;99685.19;;;15.75
69186;BMP280;56298;49.246;9.410;2022-07-01T06:50:11;99689.47;;;15.69
69186;BMP280;56298;49.246;9.410;2022-07-01T06:52:36;99669.31;;;15.68
69186;BMP280;56298;49.246;9.410;2022-07-01T06:55:02;99668.56;;;15.72
69186;BMP280;56298;49.246;9.410;2022-07-01T06:57:27;99664.22;;;15.71
69186;BMP280;56298;49.246;9.410;2022-07-01T06:59:53;99661.53;;;15.81
69186;BMP280;56298;49.246;9.410;2022-07-01T07:02:18;99667.06;;;15.81
69186;BMP280;56298;49.246;9.410;2022-07-01T07:04:43;99669.81;;;15.85
69186;BMP280;56298;49.246;9.410;2022-07-01T07:07:09;99678.56;;;15.87
69186;BMP280;56298;49.246;9.410;2022-07-01T07:09:34;99688.44;;;15.92
69186;BMP280;56298;49.246;9.410;2022-07-01T07:12:00;99681.78;;;15.96
69186;BMP280;56298;49.246;9.410;2022-07-01T07:14:25;99678.59;;;15.94
69186;BMP280;56298;49.246;9.410;2022-07-01T07:16:50;99682.53;;;15.93
69186;BMP280;56298;49.246;9.410;2022-07-01T07:19:16;99690.41;;;15.91
69186;BMP280;56298;49.246;9.410;2022-07-01T07:21:42;99704.59;;;15.86
69186;BMP280;56298;49.246;9.410;2022-07-01T07:24:07;99702.28;;;15.92
69186;BMP280;56298;49.246;9.410;2022-07-01T07:26:32;99708.25;;;15.97
69186;BMP280;56298;49.246;9.410;2022-07-01T07:28:58;99709.47;;;16.00
69186;BMP280;56298;49.246;9.410;2022-07-01T07:31:23;99709.53;;;16.11
69186;BMP280;56298;49.246;9.410;2022-07-01T07:35:59;99715.94;;;15.70
69186;BMP280;56298;49.246;9.410;2022-07-01T07:38:24;99723.91;;;15.75
69186;BMP280;56298;49.246;9.410;2022-07-01T07:40:50;99717.19;;;15.76
69186;BMP280;56298;49.246;9.410;2022-07-01T07:43:15;99722.03;;;15.90
69186;BMP280;56298;49.246;9.410;2022-07-01T07:45:40;99716.59;;;16.01
69186;BMP280;56298;49.246;9.410;2022-07-01T07:48:06;99719.81;;;16.14
69186;BMP280;56298;49.246;9.410;2022-07-01T07:50:32;99728.56;;;16.23
69186;BMP280;56298;49.246;9.410;2022-07-01T07:52:58;99732.16;;;16.31
69186;BMP280;56298;49.246;9.410;2022-07-01T07:55:23;99728.34;;;16.54
69186;BMP280;56298;49.246;9.410;2022-07-01T07:57:48;99714.59;;;16.76
69186;BMP280;56298;49.246;9.410;2022-07-01T08:00:14;99708.69;;;16.92
69186;BMP280;56298;49.246;9.410;2022-07-01T08:02:40;99717.44;;;17.12
69186;BMP280;56298;49.246;9.410;2022-07-01T08:05:07;99719.06;;;17.27
69186;BMP280;56298;49.246;9.410;2022-07-01T08:07:38;99719.84;;;17.39
69186;BMP280;56298;49.246;9.410;2022-07-01T08:10:08;99729.75;;;17.33
69186;BMP280;56298;49.246;9.410;2022-07-01T08:12:33;99740.03;;;17.10
69186;BMP280;56298;49.246;9.410;2022-07-01T08:14:59;99734.88;;;17.09
69186;BMP280;56298;49.246;9.410;2022-07-01T08:17:25;99727.34;;;17.17
69186;BMP280;56298;49.246;9.410;2022-07-01T08:19:50;99724.59;;;17.20
69186;BMP280;56298;49.246;9.410;2022-07-01T08:22:16;99734.53;;;17.36
69186;BMP280;56298;49.246;9.410;2022-07-01T08:24:41;99745.19;;;17.34
69186;BMP280;56298;49.246;9.410;2022-07-01T08:27:07;99747.59;;;17.42
69186;BMP280;56298;49.246;9.410;2022-07-01T08:29:32;99745.56;;;17.21
69186;BMP280;56298;49.246;9.410;2022-07-01T08:31:57;99737.59;;;17.02
69186;BMP280;56298;49.246;9.410;2022-07-01T08:34:22;99733.59;;;16.84
69186;BMP280;56298;49.246;9.410;2022-07-01T08:36:48;99746.63;;;16.80
69186;BMP280;56298;49.246;9.410;2022-07-01T08:39:13;99763.69;;;16.82
69186;BMP280;56298;49.246;9.410;2022-07-01T08:41:40;99778.28;;;16.79
69186;BMP280;56298;49.246;9.410;2022-07-01T08:44:06;99791.00;;;16.88
69186;BMP280;56298;49.246;9.410;2022-07-01T08:46:31;99791.00;;;16.84
69186;BMP280;56298;49.246;9.410;2022-07-01T08:48:56;99787.78;;;16.75
69186;BMP280;56298;49.246;9.410;2022-07-01T08:51:21;99793.25;;;16.60
69186;BMP280;56298;49.246;9.410;2022-07-01T08:53:47;99800.69;;;16.52
69186;BMP280;56298;49.246;9.410;2022-07-01T08:56:12;99788.88;;;16.55
69186;BMP280;56298;49.246;9.410;2022-07-01T08:58:56;99790.44;;;16.53
69186;BMP280;56298;49.246;9.410;2022-07-01T09:01:25;99797.91;;;16.45
69186;BMP280;56298;49.246;9.410;2022-07-01T09:03:53;99795.53;;;16.44
69186;BMP280;56298;49.246;9.410;2022-07-01T09:06:21;99809.00;;;16.45
69186;BMP280;56298;49.246;9.410;2022-07-01T09:08:47;99802.13;;;16.24
69186;BMP280;56298;49.246;9.410;2022-07-01T09:11:21;99806.59;;;16.47
69186;BMP280;56298;49.246;9.410;2022-07-01T09:14:08;99803.09;;;16.50
69186;BMP280;56298;49.246;9.410;2022-07-01T09:19:05;99802.53;;;16.93
69186;BMP280;56298;49.246;9.410;2022-07-01T09:21:31;99811.72;;;17.16
69186;BMP280;56298;49.246;9.410;2022-07-01T09:27:06;99810.63;;;17.75
69186;BMP280;56298;49.246;9.410;2022-07-01T09:29:41;99809.81;;;17.63
69186;BMP280;56298;49.246;9.410;2022-07-01T09:32:09;99810.97;;;17.55
69186;BMP280;56298;49.246;9.410;2022-07-01T09:34:40;99810.94;;;17.33
69186;BMP280;56298;49.246;9.410;2022-07-01T09:37:05;99813.25;;;17.13
69186;BMP280;56298;49.246;9.410;2022-07-01T09:42:10;99809.66;;;16.94
69186;BMP280;56298;49.246;9.410;2022-07-01T09:47:25;99804.16;;;17.09
69186;BMP280;56298;49.246;9.410;2022-07-01T09:49:51;99812.09;;;17.14
69186;BMP280;56298;49.246;9.410;2022-07-01T09:52:17;99813.66;;;17.04
69186;BMP280;56298;49.246;9.410;2022-07-01T09:54:43;99806.53;;;17.10
69186;BMP280;56298;49.246;9.410;2022-07-01T09:57:09;99787.16;;;17.10
69186;BMP280;56298;49.246;9.410;2022-07-01T09:59:35;99783.63;;;17.35
69186;BMP280;56298;49.246;9.410;2022-07-01T10:02:01;99803.81;;;17.25
69186;BMP280;56298;49.246;9.410;2022-07-01T10:04:27;99816.47;;;17.26
69186;BMP280;56298;49.246;9.410;2022-07-01T10:07:01;99815.69;;;17.33
69186;BMP280;56298;49.246;9.410;2022-07-01T10:09:43;99824.84;;;17.37
69186;BMP280;56298;49.246;9.410;2022-07-01T10:12:34;99822.03;;;17.30
69186;BMP280;56298;49.246;9.410;2022-07-01T10:15:01;99820.03;;;17.34
69186;BMP280;56298;49.246;9.410;2022-07-01T10:17:34;99811.31;;;17.17
69186;BMP280;56298;49.246;9.410;2022-07-01T10:20:17;99808.88;;;17.08
69186;BMP280;56298;49.246;9.410;2022-07-01T10:22:44;99819.13;;;17.01
69186;BMP280;56298;49.246;9.410;2022-07-01T10:28:15;99820.66;;;16.87
69186;BMP280;56298;49.246;9.410;2022-07-01T10:30:51;99833.31;;;16.77
69186;BMP280;56298;49.246;9.410;2022-07-01T10:44:19;99837.78;;;17.04
69186;BMP280;56298;49.246;9.410;2022-07-01T10:46:49;99832.63;;;17.06
69186;BMP280;56298;49.246;9.410;2022-07-01T10:49:21;99850.50;;;17.23
69186;BMP280;56298;49.246;9.410;2022-07-01T10:52:10;99843.84;;;17.42
69186;BMP280;56298;49.246;9.410;2022-07-01T11:00:45;99843.91;;;17.67
69186;BMP280;56298;49.246;9.410;2022-07-01T11:02:39;99846.25;;;17.62
69186;BMP280;56298;49.246;9.410;2022-07-01T11:05:07;99843.91;;;17.78
69186;BMP280;56298;49.246;9.410;2022-07-01T11:07:35;99855.03;;;17.96
69186;BMP280;56298;49.246;9.410;2022-07-01T11:10:03;99854.63;;;18.16
69186;BMP280;56298;49.246;9.410;2022-07-01T11:12:29;99859.38;;;18.23
69186;BMP280;56298;49.246;9.410;2022-07-01T11:14:56;99862.53;;;18.47
69186;BMP280;56298;49.246;9.410;2022-07-01T11:17:27;99863.34;;;18.47
69186;BMP280;56298;49.246;9.410;2022-07-01T11:19:56;99860.16;;;18.41
69186;BMP280;56298;49.246;9.410;2022-07-01T11:22:29;99856.53;;;18.70
69186;BMP280;56298;49.246;9.410;2022-07-01T11:24:56;99876.91;;;19.30
69186;BMP280;56298;49.246;9.410;2022-07-01T11:27:22;99874.34;;;19.61
69186;BMP280;56298;49.246;9.410;2022-07-01T11:29:54;99873.94;;;20.16
69186;BMP280;56298;49.246;9.410;2022-07-01T11:32:27;99866.84;;;20.49
69186;BMP280;56298;49.246;9.410;2022-07-01T11:34:53;99865.91;;;20.94
69186;BMP280;56298;49.246;9.410;2022-07-01T11:37:19;99862.78;;;21.20
69186;BMP280;56298;49.246;9.410;2022-07-01T11:40:05;99866.00;;;21.46
69186;BMP280;56298;49.246;9.410;2022-07-01T11:42:31;99856.00;;;21.96
69186;BMP280;56298;49.246;9.410;2022-07-01T11:44:57;99842.00;;;21.99
69186;BMP280;56298;49.246;9.410;2022-07-01T11:47:24;99850.13;;;22.14
69186;BMP280;56298;49.246;9.410;2022-07-01T11:49:49;99855.91;;;22.03
69186;BMP280;56298;49.246;9.410;2022-07-01T11:52:17;99859.81;;;21.85
69186;BMP280;56298;49.246;9.410;2022-07-01T11:54:47;99855.50;;;22.45
69186;BMP280;56298;49.246;9.410;2022-07-01T11:57:15;99854.38;;;23.36
69186;BMP280;56298;49.246;9.410;2022-07-01T11:59:42;99855.84;;;23.41
69186;BMP280;56298;49.246;9.410;2022-07-01T12:02:09;99850.22;;;23.90
69186;BMP280;56298;49.246;9.410;2022-07-01T12:04:36;99852.19;;;24.06
69186;BMP280;56298;49.246;9.410;2022-07-01T12:07:02;99846.38;;;24.14
69186;BMP280;56298;49.246;9.410;2022-07-01T12:09:27;99845.75;;;24.22
69186;BMP280;56298;49.246;9.410;2022-07-01T12:11:53;99845.22;;;23.98
69186;BMP280;56298;49.246;9.410;2022-07-01T12:14:27;99841.84;;;24.33
69186;BMP280;56298;49.246;9.410;2022-07-01T12:16:55;99842.69;;;24.59
69186;BMP280;56298;49.246;9.410;2022-07-01T12:19:27;99838.38;;;24.41
69186;BMP280;56298;49.246;9.410;2022-07-01T12:21:55;99833.59;;;24.42
69186;BMP280;56298;49.246;9.410;2022-07-01T12:24:23;99836.22;;;24.33
69186;BMP280;56298;49.246;9.410;2022-07-01T12:29:26;99852.88;;;25.43
69186;BMP280;56298;49.246;9.410;2022-07-01T12:32:11;99845.53;;;25.72
69186;BMP280;56298;49.246;9.410;2022-07-01T12:34:46;99849.03;;;25.63
69186;BMP280;56298;49.246;9.410;2022-07-01T12:37:14;99854.03;;;25.33
69186;BMP280;56298;49.246;9.410;2022-07-01T12:39:46;99845.34;;;25.53
69186;BMP280;56298;49.246;9.410;2022-07-01T12:42:40;99843.56;;;25.33
69186;BMP280;56298;49.246;9.410;2022-07-01T12:45:13;99843.72;;;25.30
69186;BMP280;56298;49.246;9.410;2022-07-01T12:47:43;99847.88;;;25.12
69186;BMP280;56298;49.246;9.410;2022-07-01T12:50:15;99842.03;;;24.25
69186;BMP280;56298;49.246;9.410;2022-07-01T12:52:44;99837.47;;;23.40
69186;BMP280;56298;49.246;9.410;2022-07-01T12:55:16;99836.16;;;23.28
69186;BMP280;56298;49.246;9.410;2022-07-01T12:57:42;99843.13;;;23.19
69186;BMP280;56298;49.246;9.410;2022-07-01T13:00:07;99834.94;;;23.12
69186;BMP280;56298;49.246;9.410;2022-07-01T13:02:33;99836.09;;;23.48
69186;BMP280;56298;49.246;9.410;2022-07-01T13:04:58;99838.78;;;23.35
69186;BMP280;56298;49.246;9.410;2022-07-01T13:07:23;99842.19;;;23.76
69186;BMP280;56298;49.246;9.410;2022-07-01T13:09:49;99841.75;;;24.07
69186;BMP280;56298;49.246;9.410;2022-07-01T13:12:14;99829.41;;;24.34
69186;BMP280;56298;49.246;9.410;2022-07-01T13:14:40;99823.50;;;24.58
69186;BMP280;56298;49.246;9.410;2022-07-01T13:17:05;99828.09;;;24.51
69186;BMP280;56298;49.246;9.410;2022-07-01T13:19:31;99824.75;;;24.95
69186;BMP280;56298;49.246;9.410;2022-07-01T13:21:59;99820.72;;;24.96
69186;BMP280;56298;49.246;9.410;2022-07-01T13:24:24;99818.13;;;24.89
69186;BMP280;56298;49.246;9.410;2022-07-01T13:26:50;99821.94;;;24.82
69186;BMP280;56298;49.246;9.410;2022-07-01T13:29:15;99823.50;;;25.22
69186;BMP280;56298;49.246;9.410;2022-07-01T13:31:40;99816.00;;;25.19
69186;BMP280;56298;49.246;9.410;2022-07-01T13:34:06;99831.16;;;25.09
69186;BMP280;56298;49.246;9.410;2022-07-01T13:36:31;99820.19;;;24.76
69186;BMP280;56298;49.246;9.410;2022-07-01T13:38:56;99826.13;;;24.65
69186;BMP280;56298;49.246;9.410;2022-07-01T13:41:21;99827.41;;;24.47
69186;BMP280;56298;49.246;9.410;2022-07-01T13:43:58;99830.78;;;24.42
69186;BMP280;56298;49.246;9.410;2022-07-01T13:46:23;99833.88;;;24.31
69186;BMP280;56298;49.246;9.410;2022-07-01T13:48:48;99836.22;;;24.33
69186;BMP280;56298;49.246;9.410;2022-07-01T13:51:14;99837.91;;;24.30
69186;BMP280;56298;49.246;9.410;2022-07-01T13:53:40;99839.88;;;24.59
69186;BMP280;56298;49.246;9.410;2022-07-01T13:56:05;99840.00;;;24.81
69186;BMP280;56298;49.246;9.410;2022-07-01T13:58:30;99836.06;;;24.66
69186;BMP280;56298;49.246;9.410;2022-07-01T14:00:56;99838.66;;;24.60
69186;BMP280;56298;49.246;9.410;2022-07-01T14:03:21;99842.28;;;24.31
69186;BMP280;56298;49.246;9.410;2022-07-01T14:05:47;99836.03;;;23.81
69186;BMP280;56298;49.246;9.410;2022-07-01T14:08:12;99834.63;;;23.73
69186;BMP280;56298;49.246;9.410;2022-07-01T14:10:38;99841.16;;;23.53
69186;BMP280;56298;49.246;9.410;2022-07-01T14:13:05;99830.41;;;23.35
69186;BMP280;56298;49.246;9.410;2022-07-01T14:15:31;99836.22;;;23.08
69186;BMP280;56298;49.246;9.410;2022-07-01T14:17:56;99838.13;;;22.94
69186;BMP280;56298;49.246;9.410;2022-07-01T14:20:21;99843.34;;;22.92
69186;BMP280;56298;49.246;9.410;2022-07-01T14:22:47;99842.53;;;22.95
69186;BMP280;56298;49.246;9.410;2022-07-01T14:25:12;99843.38;;;23.09
69186;BMP280;56298;49.246;9.410;2022-07-01T14:27:37;99842.34;;;23.19
69186;BMP280;56298;49.246;9.410;2022-07-01T14:30:04;99841.03;;;23.07
69186;BMP280;56298;49.246;9.410;2022-07-01T14:32:31;99830.84;;;22.97
69186;BMP280;56298;49.246;9.410;2022-07-01T14:34:56;99840.34;;;23.19
69186;BMP280;56298;49.246;9.410;2022-07-01T14:37:21;99832.09;;;22.96
69186;BMP280;56298;49.246;9.410;2022-07-01T14:39:47;99839.72;;;22.95
69186;BMP280;56298;49.246;9.410;2022-07-01T14:42:15;99838.28;;;23.03